sensor_id;sensor_type;location;lat;lon;timestamp;P1;durP1;ratioP1;P2;durP2;ratioP2
8803;SDS011;4438;50.890;4.726;2023-01-09T00:01:13;6.93;;;3.13;;
8803;SDS011;4438;50.890;4.726;2023-01-09T00:03:39;7.03;;;3.63;;
8803;SDS011;4438;50.890;4.726;2023-01-09T00:06:05;6.87;;;3.60;;
8803;SDS011;4438;50.890;4.726;2023-01-09T00:08:31;8.30;;;3.50;;
8803;SDS011;4438;50.890;4.726;2023-01-09T00:10:57;7.90;;;3.57;;
8803;SDS011;4438;50.890;4.726;2023-01-09T00:13:23;8.20;;;4.40;;
8803;SDS011;4438;50.890;4.726;2023-01-09T00:15:49;7.53;;;4.00;;
8803;SDS011;4438;50.890;4.726;2023-01-09T00:18:15;7.07;;;4.10;;
8803;SDS011;4438;50.890;4.726;2023-01-09T00:20:41;6.50;;;3.70;;
8803;SDS011;4438;50.890;4.726;2023-01-09T00:23:08;8.27;;;3.33;;
8803;SDS011;4438;50.890;4.726;2023-01-09T00:25:34;5.97;;;3.13;;
8803;SDS011;4438;50.890;4.726;2023-01-09T00:28:00;3.23;;;2.20;;
8803;SDS011;4438;50.890;4.726;2023-01-09T00:30:27;4.33;;;2.80;;
8803;SDS011;4438;50.890;4.726;2023-01-09T00:32:53;4.63;;;2.33;;
8803;SDS011;4438;50.890;4.726;2023-01-09T00:35:20;4.70;;;2.10;;
8803;SDS011;4438;50.890;4.726;2023-01-09T00:37:47;2.60;;;2.00;;
8803;SDS011;4438;50.890;4.726;2023-01-09T00:40:14;3.43;;;2.00;;
8803;SDS011;4438;50.890;4.726;2023-01-09T00:42:41;4.40;;;2.23;;
8803;SDS011;4438;50.890;4.726;2023-01-09T00:45:15;3.30;;;1.77;;
8803;SDS011;4438;50.890;4.726;2023-01-09T00:47:46;4.03;;;2.07;;
8803;SDS011;4438;50.890;4.726;2023-01-09T00:50:20;3.83;;;1.70;;
8803;SDS011;4438;50.890;4.726;2023-01-09T00:52:48;2.37;;;1.80;;
8803;SDS011;4438;50.890;4.726;2023-01-09T00:55:15;4.47;;;2.00;;
8803;SDS011;4438;50.890;4.726;2023-01-09T00:57:41;2.53;;;1.70;;
8803;SDS011;4438;50.890;4.726;2023-01-09T01:00:08;2.97;;;1.90;;
8803;SDS011;4438;50.890;4.726;2023-01-09T01:02:34;2.50;;;2.10;;
8803;SDS011;4438;50.890;4.726;2023-01-09T01:05:00;2.20;;;2.00;;
8803;SDS011;4438;50.890;4.726;2023-01-09T01:07:45;3.07;;;2.17;;
8803;SDS011;4438;50.890;4.726;2023-01-09T01:10:14;4.07;;;2.10;;
8803;SDS011;4438;50.890;4.726;2023-01-09T01:12:41;3.17;;;2.10;;
8803;SDS011;4438;50.890;4.726;2023-01-09T01:15:07;4.23;;;2.27;;
8803;SDS011;4438;50.890;4.726;2023-01-09T01:17:34;3.33;;;1.87;;
8803;SDS011;4438;50.890;4.726;2023-01-09T01:20:01;2.77;;;1.97;;
8803;SDS011;4438;50.890;4.726;2023-01-09T01:22:27;3.50;;;2.23;;
8803;SDS011;4438;50.890;4.726;2023-01-09T01:24:53;2.87;;;2.57;;
8803;SDS011;4438;50.890;4.726;2023-01-09T01:27:19;3.87;;;2.07;;
8803;SDS011;4438;50.890;4.726;2023-01-09T01:29:45;2.20;;;2.00;;
8803;SDS011;4438;50.890;4.726;2023-01-09T01:32:11;4.30;;;2.20;;
8803;SDS011;4438;50.890;4.726;2023-01-09T01:34:37;3.00;;;1.80;;
8803;SDS011;4438;50.890;4.726;2023-01-09T01:37:04;3.77;;;1.80;;
8803;SDS011;4438;50.890;4.726;2023-01-09T01:39:30;3.10;;;2.07;;
8803;SDS011;4438;50.890;4.726;2023-01-09T01:41:56;3.47;;;2.00;;
8803;SDS011;4438;50.890;4.726;2023-01-09T01:47:07;2.63;;;1.80;;
8803;SDS011;4438;50.890;4.726;2023-01-09T01:49:33;3.50;;;1.70;;
8803;SDS011;4438;50.890;4.726;2023-01-09T01:51:59;2.63;;;1.70;;
8803;SDS011;4438;50.890;4.726;2023-01-09T01:54:25;3.73;;;2.00;;
8803;SDS011;4438;50.890;4.726;2023-01-09T01:56:54;3.37;;;1.70;;
8803;SDS011;4438;50.890;4.726;2023-01-09T02:01:49;2.57;;;1.60;;
8803;SDS011;4438;50.890;4.726;2023-01-09T02:04:16;1.87;;;1.70;;
8803;SDS011;4438;50.890;4.726;2023-01-09T02:06:43;3.13;;;1.40;;
8803;SDS011;4438;50.890;4.726;2023-01-09T02:09:10;3.60;;;1.70;;
8803;SDS011;4438;50.890;4.726;2023-01-09T02:11:45;3.23;;;1.90;;
8803;SDS011;4438;50.890;4.726;2023-01-09T02:14:12;3.30;;;1.70;;
8803;SDS011;4438;50.890;4.726;2023-01-09T02:38:14;3.50;;;1.40;;
8803;SDS011;4438;50.890;4.726;2023-01-09T02:43:08;4.67;;;2.00;;
8803;SDS011;4438;50.890;4.726;2023-01-09T02:45:35;3.67;;;1.57;;
8803;SDS011;4438;50.890;4.726;2023-01-09T02:48:01;4.90;;;1.70;;
8803;SDS011;4438;50.890;4.726;2023-01-09T02:50:33;4.60;;;1.60;;
8803;SDS011;4438;50.890;4.726;2023-01-09T03:08:21;3.60;;;1.43;;
8803;SDS011;4438;50.890;4.726;2023-01-09T03:10:59;4.40;;;1.40;;
8803;SDS011;4438;50.890;4.726;2023-01-09T03:13:30;3.53;;;1.77;;
8803;SDS011;4438;50.890;4.726;2023-01-09T03:15:57;4.37;;;1.60;;
8803;SDS011;4438;50.890;4.726;2023-01-09T03:18:26;4.57;;;1.50;;
8803;SDS011;4438;50.890;4.726;2023-01-09T03:20:53;5.13;;;1.50;;
8803;SDS011;4438;50.890;4.726;2023-01-09T03:23:19;3.63;;;1.53;;
8803;SDS011;4438;50.890;4.726;2023-01-09T03:25:46;2.73;;;1.60;;
8803;SDS011;4438;50.890;4.726;2023-01-09T03:28:17;2.77;;;1.63;;
8803;SDS011;4438;50.890;4.726;2023-01-09T03:30:46;4.23;;;1.67;;
8803;SDS011;4438;50.890;4.726;2023-01-09T03:33:13;6.50;;;2.20;;
8803;SDS011;4438;50.890;4.726;2023-01-09T03:35:39;3.40;;;1.40;;
8803;SDS011;4438;50.890;4.726;2023-01-09T03:38:05;4.97;;;1.97;;
8803;SDS011;4438;50.890;4.726;2023-01-09T03:40:31;6.57;;;1.50;;
8803;SDS011;4438;50.890;4.726;2023-01-09T03:42:57;3.87;;;1.60;;
8803;SDS011;4438;50.890;4.726;2023-01-09T03:45:23;3.77;;;1.57;;
8803;SDS011;4438;50.890;4.726;2023-01-09T03:47:49;6.57;;;2.00;;
8803;SDS011;4438;50.890;4.726;2023-01-09T03:50:15;5.03;;;1.50;;
8803;SDS011;4438;50.890;4.726;2023-01-09T03:52:41;4.77;;;1.53;;
8803;SDS011;4438;50.890;4.726;2023-01-09T03:55:07;3.70;;;1.70;;
8803;SDS011;4438;50.890;4.726;2023-01-09T03:57:34;5.77;;;2.00;;
8803;SDS011;4438;50.890;4.726;2023-01-09T04:00:00;5.17;;;1.97;;
8803;SDS011;4438;50.890;4.726;2023-01-09T04:02:26;4.30;;;1.70;;
8803;SDS011;4438;50.890;4.726;2023-01-09T04:04:52;5.37;;;2.00;;
8803;SDS011;4438;50.890;4.726;2023-01-09T04:07:18;6.03;;;1.93;;
8803;SDS011;4438;50.890;4.726;2023-01-09T04:09:44;4.63;;;1.90;;
8803;SDS011;4438;50.890;4.726;2023-01-09T04:12:10;4.13;;;1.97;;
8803;SDS011;4438;50.890;4.726;2023-01-09T04:14:36;3.60;;;1.83;;
8803;SDS011;4438;50.890;4.726;2023-01-09T04:17:02;5.43;;;1.90;;
8803;SDS011;4438;50.890;4.726;2023-01-09T04:19:28;4.97;;;1.90;;
8803;SDS011;4438;50.890;4.726;2023-01-09T04:21:54;3.53;;;1.60;;
8803;SDS011;4438;50.890;4.726;2023-01-09T04:24:20;5.03;;;2.10;;
8803;SDS011;4438;50.890;4.726;2023-01-09T04:26:47;6.33;;;1.87;;
8803;SDS011;4438;50.890;4.726;2023-01-09T04:29:13;5.53;;;2.10;;
8803;SDS011;4438;50.890;4.726;2023-01-09T04:31:39;5.83;;;1.90;;
8803;SDS011;4438;50.890;4.726;2023-01-09T04:34:05;3.77;;;1.57;;
8803;SDS011;4438;50.890;4.726;2023-01-09T04:36:31;6.30;;;1.67;;
8803;SDS011;4438;50.890;4.726;2023-01-09T04:38:59;4.10;;;1.60;;
8803;SDS011;4438;50.890;4.726;2023-01-09T04:41:26;5.83;;;2.10;;
8803;SDS011;4438;50.890;4.726;2023-01-09T04:44:10;6.10;;;2.17;;
8803;SDS011;4438;50.890;4.726;2023-01-09T04:46:36;6.60;;;2.00;;
8803;SDS011;4438;50.890;4.726;2023-01-09T04:49:02;7.93;;;2.33;;
8803;SDS011;4438;50.890;4.726;2023-01-09T04:51:29;4.40;;;2.33;;
8803;SDS011;4438;50.890;4.726;2023-01-09T04:53:55;6.33;;;2.30;;
8803;SDS011;4438;50.890;4.726;2023-01-09T04:56:21;6.33;;;2.00;;
8803;SDS011;4438;50.890;4.726;2023-01-09T04:58:47;6.47;;;2.60;;
8803;SDS011;4438;50.890;4.726;2023-01-09T05:01:13;6.10;;;2.00;;
8803;SDS011;4438;50.890;4.726;2023-01-09T05:03:39;6.37;;;2.30;;
8803;SDS011;4438;50.890;4.726;2023-01-09T05:06:05;4.53;;;1.77;;
8803;SDS011;4438;50.890;4.726;2023-01-09T05:08:31;5.40;;;1.80;;
8803;SDS011;4438;50.890;4.726;2023-01-09T05:10:57;8.87;;;2.43;;
8803;SDS011;4438;50.890;4.726;2023-01-09T05:13:24;7.90;;;2.30;;
8803;SDS011;4438;50.890;4.726;2023-01-09T05:15:50;5.03;;;1.90;;
8803;SDS011;4438;50.890;4.726;2023-01-09T05:18:16;9.73;;;2.30;;
8803;SDS011;4438;50.890;4.726;2023-01-09T05:20:42;7.10;;;1.93;;
8803;SDS011;4438;50.890;4.726;2023-01-09T05:23:08;7.73;;;2.60;;
8803;SDS011;4438;50.890;4.726;2023-01-09T05:25:34;3.83;;;1.83;;
8803;SDS011;4438;50.890;4.726;2023-01-09T05:28:01;5.07;;;2.50;;
8803;SDS011;4438;50.890;4.726;2023-01-09T05:30:27;7.97;;;2.40;;
8803;SDS011;4438;50.890;4.726;2023-01-09T05:32:53;5.53;;;2.27;;
8803;SDS011;4438;50.890;4.726;2023-01-09T05:35:19;6.37;;;2.37;;
8803;SDS011;4438;50.890;4.726;2023-01-09T05:37:45;6.77;;;2.13;;
8803;SDS011;4438;50.890;4.726;2023-01-09T05:40:11;5.87;;;2.33;;
8803;SDS011;4438;50.890;4.726;2023-01-09T05:42:38;6.70;;;2.50;;
8803;SDS011;4438;50.890;4.726;2023-01-09T05:45:04;7.97;;;2.43;;
8803;SDS011;4438;50.890;4.726;2023-01-09T05:47:30;6.17;;;2.27;;
8803;SDS011;4438;50.890;4.726;2023-01-09T05:49:56;4.87;;;2.03;;
8803;SDS011;4438;50.890;4.726;2023-01-09T05:52:23;7.47;;;2.43;;
8803;SDS011;4438;50.890;4.726;2023-01-09T05:54:49;5.40;;;2.20;;
8803;SDS011;4438;50.890;4.726;2023-01-09T05:57:15;3.73;;;2.17;;
8803;SDS011;4438;50.890;4.726;2023-01-09T05:59:41;5.47;;;2.30;;
8803;SDS011;4438;50.890;4.726;2023-01-09T06:02:08;6.87;;;2.37;;
8803;SDS011;4438;50.890;4.726;2023-01-09T06:04:34;8.33;;;2.37;;
8803;SDS011;4438;50.890;4.726;2023-01-09T06:07:00;5.73;;;2.03;;
8803;SDS011;4438;50.890;4.726;2023-01-09T06:09:26;3.87;;;2.17;;
8803;SDS011;4438;50.890;4.726;2023-01-09T06:11:53;6.43;;;2.23;;
8803;SDS011;4438;50.890;4.726;2023-01-09T06:14:19;6.67;;;2.43;;
8803;SDS011;4438;50.890;4.726;2023-01-09T06:16:45;4.60;;;2.00;;
8803;SDS011;4438;50.890;4.726;2023-01-09T06:19:11;6.47;;;2.07;;
8803;SDS011;4438;50.890;4.726;2023-01-09T06:21:38;3.83;;;1.83;;
8803;SDS011;4438;50.890;4.726;2023-01-09T06:24:04;5.70;;;2.20;;
8803;SDS011;4438;50.890;4.726;2023-01-09T06:26:30;7.63;;;2.33;;
8803;SDS011;4438;50.890;4.726;2023-01-09T06:28:56;7.03;;;2.30;;
8803;SDS011;4438;50.890;4.726;2023-01-09T06:31:24;5.53;;;2.00;;
8803;SDS011;4438;50.890;4.726;2023-01-09T06:33:51;6.20;;;2.53;;
8803;SDS011;4438;50.890;4.726;2023-01-09T06:36:17;4.47;;;2.07;;
8803;SDS011;4438;50.890;4.726;2023-01-09T06:38:43;5.30;;;1.90;;
8803;SDS011;4438;50.890;4.726;2023-01-09T06:41:09;5.63;;;2.17;;
8803;SDS011;4438;50.890;4.726;2023-01-09T06:43:35;5.23;;;1.70;;
8803;SDS011;4438;50.890;4.726;2023-01-09T06:46:01;5.37;;;1.97;;
8803;SDS011;4438;50.890;4.726;2023-01-09T06:48:30;4.00;;;1.87;;
8803;SDS011;4438;50.890;4.726;2023-01-09T06:50:56;4.50;;;1.80;;
8803;SDS011;4438;50.890;4.726;2023-01-09T06:53:22;5.17;;;2.10;;
8803;SDS011;4438;50.890;4.726;2023-01-09T06:55:48;6.53;;;2.17;;
8803;SDS011;4438;50.890;4.726;2023-01-09T06:58:14;4.03;;;2.20;;
8803;SDS011;4438;50.890;4.726;2023-01-09T07:00:40;6.50;;;1.70;;
8803;SDS011;4438;50.890;4.726;2023-01-09T07:03:07;5.87;;;2.00;;
8803;SDS011;4438;50.890;4.726;2023-01-09T07:05:36;4.40;;;1.70;;
8803;SDS011;4438;50.890;4.726;2023-01-09T07:08:03;7.40;;;2.20;;
8803;SDS011;4438;50.890;4.726;2023-01-09T07:10:29;4.37;;;1.93;;
8803;SDS011;4438;50.890;4.726;2023-01-09T07:12:55;5.57;;;1.87;;
8803;SDS011;4438;50.890;4.726;2023-01-09T07:15:22;5.00;;;1.90;;
8803;SDS011;4438;50.890;4.726;2023-01-09T07:17:49;3.20;;;1.50;;
8803;SDS011;4438;50.890;4.726;2023-01-09T07:20:16;6.43;;;1.60;;
8803;SDS011;4438;50.890;4.726;2023-01-09T07:22:42;3.93;;;1.57;;
8803;SDS011;4438;50.890;4.726;2023-01-09T07:25:08;3.53;;;1.73;;
8803;SDS011;4438;50.890;4.726;2023-01-09T07:27:34;5.33;;;2.10;;
8803;SDS011;4438;50.890;4.726;2023-01-09T07:30:01;5.60;;;1.93;;
8803;SDS011;4438;50.890;4.726;2023-01-09T07:32:27;3.67;;;1.67;;
8803;SDS011;4438;50.890;4.726;2023-01-09T07:34:53;4.47;;;1.80;;
8803;SDS011;4438;50.890;4.726;2023-01-09T07:37:19;3.70;;;1.83;;
8803;SDS011;4438;50.890;4.726;2023-01-09T07:39:46;3.20;;;1.60;;
8803;SDS011;4438;50.890;4.726;2023-01-09T07:42:12;3.10;;;1.40;;
8803;SDS011;4438;50.890;4.726;2023-01-09T07:44:38;2.47;;;1.60;;
8803;SDS011;4438;50.890;4.726;2023-01-09T07:47:04;5.73;;;1.77;;
8803;SDS011;4438;50.890;4.726;2023-01-09T07:49:30;3.80;;;1.70;;
8803;SDS011;4438;50.890;4.726;2023-01-09T07:51:57;4.53;;;1.90;;
8803;SDS011;4438;50.890;4.726;2023-01-09T07:54:23;5.17;;;1.43;;
8803;SDS011;4438;50.890;4.726;2023-01-09T07:56:49;5.50;;;1.80;;
8803;SDS011;4438;50.890;4.726;2023-01-09T07:59:15;6.43;;;1.80;;
8803;SDS011;4438;50.890;4.726;2023-01-09T08:01:41;4.60;;;1.70;;
8803;SDS011;4438;50.890;4.726;2023-01-09T08:04:07;5.50;;;1.50;;
8803;SDS011;4438;50.890;4.726;2023-01-09T08:06:33;4.10;;;1.80;;
8803;SDS011;4438;50.890;4.726;2023-01-09T08:08:59;4.53;;;1.60;;
8803;SDS011;4438;50.890;4.726;2023-01-09T08:11:26;3.90;;;1.77;;
8803;SDS011;4438;50.890;4.726;2023-01-09T08:13:52;5.20;;;1.97;;
8803;SDS011;4438;50.890;4.726;2023-01-09T08:16:18;4.93;;;1.80;;
8803;SDS011;4438;50.890;4.726;2023-01-09T08:18:44;4.77;;;1.87;;
8803;SDS011;4438;50.890;4.726;2023-01-09T08:21:10;3.13;;;1.77;;
8803;SDS011;4438;50.890;4.726;2023-01-09T08:23:36;3.87;;;1.70;;
8803;SDS011;4438;50.890;4.726;2023-01-09T08:26:03;3.47;;;1.70;;
8803;SDS011;4438;50.890;4.726;2023-01-09T08:28:29;4.40;;;1.80;;
8803;SDS011;4438;50.890;4.726;2023-01-09T08:30:55;3.83;;;1.70;;
8803;SDS011;4438;50.890;4.726;2023-01-09T08:33:21;6.53;;;2.30;;
8803;SDS011;4438;50.890;4.726;2023-01-09T08:35:47;4.70;;;1.87;;
8803;SDS011;4438;50.890;4.726;2023-01-09T08:38:13;4.27;;;1.90;;
8803;SDS011;4438;50.890;4.726;2023-01-09T08:40:40;5.17;;;1.80;;
8803;SDS011;4438;50.890;4.726;2023-01-09T08:43:06;4.63;;;1.90;;
8803;SDS011;4438;50.890;4.726;2023-01-09T08:45:50;4.67;;;1.83;;
8803;SDS011;4438;50.890;4.726;2023-01-09T08:48:35;4.97;;;1.60;;
8803;SDS011;4438;50.890;4.726;2023-01-09T08:51:01;4.73;;;1.70;;
8803;SDS011;4438;50.890;4.726;2023-01-09T08:53:27;4.97;;;1.57;;
8803;SDS011;4438;50.890;4.726;2023-01-09T08:55:55;3.07;;;1.90;;
8803;SDS011;4438;50.890;4.726;2023-01-09T08:58:21;5.53;;;1.60;;
8803;SDS011;4438;50.890;4.726;2023-01-09T09:00:47;5.90;;;1.57;;
8803;SDS011;4438;50.890;4.726;2023-01-09T09:03:13;3.20;;;1.50;;
8803;SDS011;4438;50.890;4.726;2023-01-09T09:05:41;4.37;;;1.50;;
8803;SDS011;4438;50.890;4.726;2023-01-09T09:08:07;3.07;;;1.37;;
8803;SDS011;4438;50.890;4.726;2023-01-09T09:10:33;3.13;;;1.47;;
8803;SDS011;4438;50.890;4.726;2023-01-09T09:12:59;1.67;;;1.10;;
8803;SDS011;4438;50.890;4.726;2023-01-09T09:15:26;3.53;;;1.50;;
8803;SDS011;4438;50.890;4.726;2023-01-09T09:17:53;1.83;;;1.23;;
8803;SDS011;4438;50.890;4.726;2023-01-09T09:20:24;1.77;;;1.10;;
8803;SDS011;4438;50.890;4.726;2023-01-09T09:22:50;1.87;;;1.10;;
8803;SDS011;4438;50.890;4.726;2023-01-09T09:25:17;3.70;;;1.13;;
8803;SDS011;4438;50.890;4.726;2023-01-09T09:27:43;2.43;;;1.20;;
8803;SDS011;4438;50.890;4.726;2023-01-09T09:30:10;3.53;;;1.40;;
8803;SDS011;4438;50.890;4.726;2023-01-09T09:32:36;1.70;;;1.37;;
8803;SDS011;4438;50.890;4.726;2023-01-09T09:35:03;3.63;;;1.43;;
8803;SDS011;4438;50.890;4.726;2023-01-09T09:37:29;1.47;;;1.03;;
8803;SDS011;4438;50.890;4.726;2023-01-09T09:39:55;2.23;;;1.03;;
8803;SDS011;4438;50.890;4.726;2023-01-09T09:47:57;2.60;;;1.10;;
8803;SDS011;4438;50.890;4.726;2023-01-09T09:53:17;3.80;;;1.20;;
8803;SDS011;4438;50.890;4.726;2023-01-09T09:55:44;1.87;;;1.20;;
8803;SDS011;4438;50.890;4.726;2023-01-09T09:58:21;2.60;;;1.00;;
8803;SDS011;4438;50.890;4.726;2023-01-09T10:00:51;3.50;;;1.30;;
8803;SDS011;4438;50.890;4.726;2023-01-09T10:05:47;3.03;;;1.40;;
8803;SDS011;4438;50.890;4.726;2023-01-09T10:08:26;2.33;;;1.10;;
8803;SDS011;4438;50.890;4.726;2023-01-09T10:10:53;3.13;;;1.23;;
8803;SDS011;4438;50.890;4.726;2023-01-09T10:13:22;2.30;;;1.20;;
8803;SDS011;4438;50.890;4.726;2023-01-09T10:19:09;1.53;;;1.33;;
8803;SDS011;4438;50.890;4.726;2023-01-09T10:21:29;2.37;;;1.40;;
8803;SDS011;4438;50.890;4.726;2023-01-09T10:24:06;2.63;;;1.70;;
8803;SDS011;4438;50.890;4.726;2023-01-09T10:27:09;1.97;;;1.20;;
8803;SDS011;4438;50.890;4.726;2023-01-09T10:32:24;3.20;;;1.40;;
8803;SDS011;4438;50.890;4.726;2023-01-09T10:37:21;2.43;;;1.30;;
8803;SDS011;4438;50.890;4.726;2023-01-09T10:39:49;2.33;;;1.20;;
8803;SDS011;4438;50.890;4.726;2023-01-09T10:42:20;4.00;;;1.20;;
8803;SDS011;4438;50.890;4.726;2023-01-09T10:44:59;2.60;;;1.20;;
8803;SDS011;4438;50.890;4.726;2023-01-09T10:47:28;2.30;;;1.47;;
8803;SDS011;4438;50.890;4.726;2023-01-09T10:49:55;2.03;;;1.40;;
8803;SDS011;4438;50.890;4.726;2023-01-09T10:52:27;1.83;;;1.30;;
8803;SDS011;4438;50.890;4.726;2023-01-09T10:54:55;1.97;;;1.27;;
8803;SDS011;4438;50.890;4.726;2023-01-09T10:57:42;3.67;;;1.77;;
8803;SDS011;4438;50.890;4.726;2023-01-09T11:00:15;4.57;;;1.20;;
8803;SDS011;4438;50.890;4.726;2023-01-09T11:02:42;4.30;;;1.20;;
8803;SDS011;4438;50.890;4.726;2023-01-09T11:05:12;2.00;;;1.20;;
8803;SDS011;4438;50.890;4.726;2023-01-09T11:07:41;2.60;;;1.43;;
8803;SDS011;4438;50.890;4.726;2023-01-09T11:10:08;3.33;;;1.50;;
8803;SDS011;4438;50.890;4.726;2023-01-09T11:12:36;4.27;;;1.57;;
8803;SDS011;4438;50.890;4.726;2023-01-09T11:15:21;2.00;;;1.20;;
8803;SDS011;4438;50.890;4.726;2023-01-09T11:17:53;4.20;;;1.93;;
8803;SDS011;4438;50.890;4.726;2023-01-09T11:22:46;3.03;;;1.60;;
8803;SDS011;4438;50.890;4.726;2023-01-09T11:25:13;2.00;;;1.30;;
8803;SDS011;4438;50.890;4.726;2023-01-09T11:27:40;3.63;;;1.60;;
8803;SDS011;4438;50.890;4.726;2023-01-09T11:32:32;4.73;;;1.50;;
8803;SDS011;4438;50.890;4.726;2023-01-09T11:34:59;1.90;;;1.40;;
8803;SDS011;4438;50.890;4.726;2023-01-09T11:37:26;3.83;;;1.87;;
8803;SDS011;4438;50.890;4.726;2023-01-09T11:39:53;3.43;;;1.70;;
8803;SDS011;4438;50.890;4.726;2023-01-09T11:42:21;3.30;;;1.60;;
8803;SDS011;4438;50.890;4.726;2023-01-09T11:45:19;3.03;;;1.80;;
8803;SDS011;4438;50.890;4.726;2023-01-09T11:47:46;3.40;;;1.60;;
8803;SDS011;4438;50.890;4.726;2023-01-09T11:50:16;2.67;;;2.07;;
8803;SDS011;4438;50.890;4.726;2023-01-09T11:52:43;2.63;;;2.00;;
8803;SDS011;4438;50.890;4.726;2023-01-09T11:55:10;3.93;;;1.90;;
8803;SDS011;4438;50.890;4.726;2023-01-09T11:57:37;2.87;;;2.23;;
8803;SDS011;4438;50.890;4.726;2023-01-09T12:00:12;2.93;;;2.20;;
8803;SDS011;4438;50.890;4.726;2023-01-09T12:05:28;3.13;;;1.73;;
8803;SDS011;4438;50.890;4.726;2023-01-09T12:15:53;5.23;;;1.80;;
8803;SDS011;4438;50.890;4.726;2023-01-09T12:18:30;4.97;;;1.60;;
8803;SDS011;4438;50.890;4.726;2023-01-09T12:21:13;3.30;;;1.97;;
8803;SDS011;4438;50.890;4.726;2023-01-09T12:23:58;4.10;;;2.20;;
8803;SDS011;4438;50.890;4.726;2023-01-09T12:31:46;3.37;;;2.00;;
8803;SDS011;4438;50.890;4.726;2023-01-09T12:49:45;6.67;;;2.43;;
8803;SDS011;4438;50.890;4.726;2023-01-09T12:52:12;3.53;;;2.03;;
8803;SDS011;4438;50.890;4.726;2023-01-09T12:57:14;4.60;;;2.43;;
8803;SDS011;4438;50.890;4.726;2023-01-09T12:59:46;6.17;;;2.73;;
8803;SDS011;4438;50.890;4.726;2023-01-09T13:04:41;5.20;;;2.60;;
8803;SDS011;4438;50.890;4.726;2023-01-09T13:07:17;5.03;;;2.40;;
8803;SDS011;4438;50.890;4.726;2023-01-09T13:09:55;3.43;;;2.30;;
8803;SDS011;4438;50.890;4.726;2023-01-09T13:12:23;6.37;;;3.03;;
8803;SDS011;4438;50.890;4.726;2023-01-09T13:15:03;6.13;;;2.50;;
8803;SDS011;4438;50.890;4.726;2023-01-09T13:17:35;3.70;;;2.43;;
8803;SDS011;4438;50.890;4.726;2023-01-09T13:20:01;4.53;;;2.43;;
8803;SDS011;4438;50.890;4.726;2023-01-09T13:22:29;4.47;;;2.70;;
8803;SDS011;4438;50.890;4.726;2023-01-09T13:27:21;6.90;;;2.87;;
8803;SDS011;4438;50.890;4.726;2023-01-09T13:29:51;4.37;;;2.70;;
8803;SDS011;4438;50.890;4.726;2023-01-09T13:34:52;4.83;;;2.80;;
8803;SDS011;4438;50.890;4.726;2023-01-09T13:37:25;6.00;;;3.00;;
8803;SDS011;4438;50.890;4.726;2023-01-09T13:39:59;6.47;;;2.70;;
8803;SDS011;4438;50.890;4.726;2023-01-09T13:42:25;4.93;;;2.70;;
8803;SDS011;4438;50.890;4.726;2023-01-09T13:47:44;7.70;;;2.70;;
8803;SDS011;4438;50.890;4.726;2023-01-09T13:50:21;5.33;;;2.97;;
8803;SDS011;4438;50.890;4.726;2023-01-09T13:52:48;5.00;;;2.50;;
8803;SDS011;4438;50.890;4.726;2023-01-09T14:03:05;4.83;;;2.43;;
8803;SDS011;4438;50.890;4.726;2023-01-09T14:08:05;6.13;;;2.60;;
8803;SDS011;4438;50.890;4.726;2023-01-09T14:10:37;4.57;;;2.20;;
8803;SDS011;4438;50.890;4.726;2023-01-09T14:13:11;5.20;;;2.97;;
8803;SDS011;4438;50.890;4.726;2023-01-09T14:15:42;4.43;;;2.73;;
8803;SDS011;4438;50.890;4.726;2023-01-09T14:18:27;4.83;;;2.60;;
8803;SDS011;4438;50.890;4.726;2023-01-09T14:21:04;6.93;;;2.90;;
8803;SDS011;4438;50.890;4.726;2023-01-09T14:26:16;5.63;;;2.73;;
8803;SDS011;4438;50.890;4.726;2023-01-09T14:28:43;6.63;;;2.97;;
8803;SDS011;4438;50.890;4.726;2023-01-09T14:31:10;8.17;;;3.37;;
8803;SDS011;4438;50.890;4.726;2023-01-09T14:33:51;5.73;;;3.17;;
8803;SDS011;4438;50.890;4.726;2023-01-09T14:36:37;8.43;;;3.33;;
8803;SDS011;4438;50.890;4.726;2023-01-09T14:39:05;6.80;;;3.10;;
8803;SDS011;4438;50.890;4.726;2023-01-09T14:41:35;6.73;;;2.77;;
8803;SDS011;4438;50.890;4.726;2023-01-09T14:44:26;8.77;;;3.30;;
8803;SDS011;4438;50.890;4.726;2023-01-09T14:46:53;6.93;;;2.70;;
8803;SDS011;4438;50.890;4.726;2023-01-09T14:49:38;6.43;;;2.90;;
8803;SDS011;4438;50.890;4.726;2023-01-09T14:52:20;8.33;;;3.13;;
8803;SDS011;4438;50.890;4.726;2023-01-09T14:54:46;7.23;;;2.83;;
8803;SDS011;4438;50.890;4.726;2023-01-09T14:57:32;7.97;;;2.90;;
8803;SDS011;4438;50.890;4.726;2023-01-09T15:00:13;5.97;;;2.90;;
8803;SDS011;4438;50.890;4.726;2023-01-09T15:02:40;6.80;;;2.87;;
8803;SDS011;4438;50.890;4.726;2023-01-09T15:05:07;9.50;;;3.07;;
8803;SDS011;4438;50.890;4.726;2023-01-09T15:07:35;4.23;;;2.70;;
8803;SDS011;4438;50.890;4.726;2023-01-09T15:10:10;7.17;;;2.70;;
8803;SDS011;4438;50.890;4.726;2023-01-09T15:12:37;8.30;;;3.30;;
8803;SDS011;4438;50.890;4.726;2023-01-09T15:15:04;5.93;;;3.03;;
8803;SDS011;4438;50.890;4.726;2023-01-09T15:17:33;6.67;;;3.00;;
8803;SDS011;4438;50.890;4.726;2023-01-09T15:20:00;7.70;;;2.93;;
8803;SDS011;4438;50.890;4.726;2023-01-09T15:22:28;7.23;;;2.70;;
8803;SDS011;4438;50.890;4.726;2023-01-09T15:24:55;7.47;;;2.80;;
8803;SDS011;4438;50.890;4.726;2023-01-09T15:27:23;6.97;;;2.27;;
8803;SDS011;4438;50.890;4.726;2023-01-09T15:29:49;5.37;;;2.70;;
8803;SDS011;4438;50.890;4.726;2023-01-09T15:32:26;6.30;;;2.63;;
8803;SDS011;4438;50.890;4.726;2023-01-09T15:34:53;5.63;;;2.47;;
8803;SDS011;4438;50.890;4.726;2023-01-09T15:37:24;7.40;;;2.83;;
8803;SDS011;4438;50.890;4.726;2023-01-09T15:39:50;4.73;;;2.67;;
8803;SDS011;4438;50.890;4.726;2023-01-09T15:42:23;4.73;;;2.27;;
8803;SDS011;4438;50.890;4.726;2023-01-09T15:45:21;5.57;;;2.23;;
8803;SDS011;4438;50.890;4.726;2023-01-09T15:47:48;5.30;;;2.40;;
8803;SDS011;4438;50.890;4.726;2023-01-09T15:50:15;4.70;;;2.47;;
8803;SDS011;4438;50.890;4.726;2023-01-09T15:52:41;4.47;;;2.33;;
8803;SDS011;4438;50.890;4.726;2023-01-09T15:55:14;5.57;;;2.27;;
8803;SDS011;4438;50.890;4.726;2023-01-09T15:57:49;6.60;;;2.10;;
8803;SDS011;4438;50.890;4.726;2023-01-09T16:00:31;3.80;;;2.40;;
8803;SDS011;4438;50.890;4.726;2023-01-09T16:02:58;5.87;;;2.50;;
8803;SDS011;4438;50.890;4.726;2023-01-09T16:05:37;5.90;;;2.47;;
8803;SDS011;4438;50.890;4.726;2023-01-09T16:08:04;5.93;;;2.53;;
8803;SDS011;4438;50.890;4.726;2023-01-09T16:10:33;6.50;;;2.07;;
8803;SDS011;4438;50.890;4.726;2023-01-09T16:13:00;4.87;;;2.30;;
8803;SDS011;4438;50.890;4.726;2023-01-09T16:15:26;4.60;;;2.40;;
8803;SDS011;4438;50.890;4.726;2023-01-09T16:18:54;7.47;;;2.40;;
8803;SDS011;4438;50.890;4.726;2023-01-09T16:20:49;6.43;;;2.30;;
8803;SDS011;4438;50.890;4.726;2023-01-09T16:23:30;6.13;;;2.57;;
8803;SDS011;4438;50.890;4.726;2023-01-09T16:26:03;3.63;;;2.57;;
8803;SDS011;4438;50.890;4.726;2023-01-09T16:28:30;6.97;;;3.27;;
8803;SDS011;4438;50.890;4.726;2023-01-09T16:31:00;5.70;;;2.43;;
8803;SDS011;4438;50.890;4.726;2023-01-09T16:33:28;4.47;;;2.40;;
8803;SDS011;4438;50.890;4.726;2023-01-09T16:35:54;3.97;;;2.30;;
8803;SDS011;4438;50.890;4.726;2023-01-09T16:38:22;8.83;;;3.43;;
8803;SDS011;4438;50.890;4.726;2023-01-09T16:43:44;8.43;;;3.10;;
8803;SDS011;4438;50.890;4.726;2023-01-09T16:46:10;6.47;;;3.00;;
8803;SDS011;4438;50.890;4.726;2023-01-09T16:48:37;6.43;;;2.87;;
8803;SDS011;4438;50.890;4.726;2023-01-09T16:51:04;6.93;;;3.03;;
8803;SDS011;4438;50.890;4.726;2023-01-09T16:53:30;8.73;;;3.17;;
8803;SDS011;4438;50.890;4.726;2023-01-09T16:55:57;6.30;;;2.93;;
8803;SDS011;4438;50.890;4.726;2023-01-09T16:58:27;6.03;;;2.60;;
8803;SDS011;4438;50.890;4.726;2023-01-09T17:00:55;6.10;;;2.87;;
8803;SDS011;4438;50.890;4.726;2023-01-09T17:03:21;7.00;;;2.93;;
8803;SDS011;4438;50.890;4.726;2023-01-09T17:05:49;4.83;;;3.10;;
8803;SDS011;4438;50.890;4.726;2023-01-09T17:08:23;6.00;;;2.97;;
8803;SDS011;4438;50.890;4.726;2023-01-09T17:10:50;2.80;;;2.47;;
8803;SDS011;4438;50.890;4.726;2023-01-09T17:13:17;5.20;;;2.90;;
8803;SDS011;4438;50.890;4.726;2023-01-09T17:15:43;4.83;;;2.70;;
8803;SDS011;4438;50.890;4.726;2023-01-09T17:18:13;5.73;;;2.80;;
8803;SDS011;4438;50.890;4.726;2023-01-09T17:20:40;5.57;;;2.97;;
8803;SDS011;4438;50.890;4.726;2023-01-09T17:23:07;5.57;;;2.73;;
8803;SDS011;4438;50.890;4.726;2023-01-09T17:25:33;4.13;;;2.80;;
8803;SDS011;4438;50.890;4.726;2023-01-09T17:28:18;5.43;;;2.73;;
8803;SDS011;4438;50.890;4.726;2023-01-09T17:31:04;8.03;;;3.20;;
8803;SDS011;4438;50.890;4.726;2023-01-09T17:33:31;5.60;;;2.70;;